Time;durP1;ratioP1;P1;durP2;ratioP2;P2;SDS_P1;SDS_P2;PMS_P1;PMS_P2;Temp;Humidity;BMP_temperature;BMP_pressure;BME280_temperature;BME280_humidity;BME280_pressure;Samples;Min_cycle;Max_cycle;Signal;HPM_P1;HPM_P2
2022/05/04 00:01:41;;;;;;;17.23;9.83;;;;;;;10.25;68.54;99649.63;1678541;85;21251;-71
2022/05/04 00:04:08;;;;;;;24.72;10.18;;;;;;;10.25;68.07;99645.68;1678519;85;21017;-71
2022/05/04 00:06:37;;;;;;;20.55;10.82;;;;;;;10.25;68.17;99656.20;1678696;85;21094;-70
2022/05/04 00:09:04;;;;;;;18.98;9.93;;;;;;;10.26;68.04;99657.94;1678687;85;21033;-71
2022/05/04 00:11:31;;;;;;;20.02;9.80;;;;;;;10.24;67.73;99649.25;1645668;87;21150;-70
2022/05/04 00:13:57;;;;;;;19.00;10.30;;;;;;;10.24;67.59;99656.30;1678635;85;21955;-69
2022/05/04 00:16:23;;;;;;;16.77;8.68;;;;;;;10.25;67.61;99661.47;1678711;85;21018;-71
2022/05/04 00:18:50;;;;;;;20.40;10.00;;;;;;;10.27;67.34;99660.95;1645814;87;21066;-71
2022/05/04 00:21:19;;;;;;;25.60;9.28;;;;;;;10.24;67.28;99662.41;1659314;85;21089;-70
2022/05/04 00:23:46;;;;;;;23.02;10.48;;;;;;;10.25;67.06;99664.10;1679171;85;21206;-71
2022/05/04 00:26:14;;;;;;;16.27;9.15;;;;;;;10.24;67.47;99662.88;1678501;85;22143;-71
2022/05/04 00:28:41;;;;;;;19.10;9.93;;;;;;;10.22;67.20;99662.93;1648571;86;21065;-70
2022/05/04 00:31:07;;;;;;;20.20;9.75;;;;;;;10.18;67.36;99666.61;1656334;85;21069;-70
2022/05/04 00:33:34;;;;;;;16.93;9.25;;;;;;;10.20;67.47;99663.45;1720648;83;21061;-71
2022/05/04 00:36:00;;;;;;;16.90;9.55;;;;;;;10.20;67.39;99673.98;1720821;83;21044;-72
2022/05/04 00:38:27;;;;;;;16.60;9.85;;;;;;;10.18;67.17;99678.45;1720826;83;21964;-70
2022/05/04 00:40:54;;;;;;;18.82;9.40;;;;;;;10.17;67.32;99688.59;1721059;83;20994;-70
2022/05/04 00:43:23;;;;;;;17.00;8.98;;;;;;;10.15;67.38;99687.80;1721024;83;21553;-70
2022/05/04 00:45:50;;;;;;;19.85;9.13;;;;;;;10.15;67.31;99689.11;1720775;83;21025;-70
2022/05/04 00:48:18;;;;;;;16.27;8.88;;;;;;;10.13;67.22;99688.32;1721001;83;21495;-71
2022/05/04 00:50:48;;;;;;;18.85;8.25;;;;;;;10.11;67.18;99680.95;1720857;83;21371;-70
2022/05/04 00:53:15;;;;;;;18.62;8.45;;;;;;;10.11;67.57;99690.16;1720863;83;21104;-71
2022/05/04 00:55:42;;;;;;;17.27;8.53;;;;;;;10.10;67.37;99687.14;1720751;83;21057;-71
2022/05/04 01:00:55;;;;;;;18.48;8.15;;;;;;;10.08;67.27;99693.78;1720835;83;21565;-71
2022/05/04 01:03:25;;;;;;;15.43;8.53;;;;;;;10.07;67.17;99692.52;1720925;83;21257;-70
2022/05/04 01:05:52;;;;;;;14.85;8.28;;;;;;;10.05;67.44;99693.03;1720699;83;21010;-69
2022/05/04 01:08:19;;;;;;;14.55;7.80;;;;;;;10.04;67.30;99687.39;1720523;82;21137;-69
2022/05/04 01:10:46;;;;;;;15.23;7.33;;;;;;;10.03;67.58;99688.30;1720986;83;21574;-71
2022/05/04 01:13:13;;;;;;;17.73;8.45;;;;;;;10.02;67.98;99689.23;1720497;83;21118;-69
2022/05/04 01:15:39;;;;;;;18.70;9.48;;;;;;;10.04;67.62;99692.66;1720944;83;21235;-70
2022/05/04 01:18:08;;;;;;;17.27;8.80;;;;;;;10.04;67.57;99692.19;1720698;83;21085;-71
2022/05/04 01:20:35;;;;;;;19.90;9.58;;;;;;;10.02;67.38;99688.76;1720970;83;21100;-72
2022/05/04 01:23:02;;;;;;;21.23;9.23;;;;;;;10.01;67.77;99692.80;1720756;83;20983;-70
2022/05/04 01:25:28;;;;;;;26.23;12.88;;;;;;;9.99;67.59;99690.69;1720844;83;21557;-70
2022/05/04 01:27:55;;;;;;;24.45;12.95;;;;;;;9.96;67.51;99693.42;1720870;83;21270;-70
2022/05/04 01:30:23;;;;;;;16.20;8.38;;;;;;;9.93;67.82;99698.35;1713188;82;21053;-71
2022/05/04 01:32:49;;;;;;;17.55;9.20;;;;;;;9.93;68.07;99694.88;1685259;83;21152;-71
2022/05/04 01:35:16;;;;;;;19.40;8.53;;;;;;;9.92;68.05;99691.86;1645682;87;21070;-70
2022/05/04 01:37:44;;;;;;;15.43;9.20;;;;;;;9.90;68.11;99692.38;1678557;85;21046;-70
2022/05/04 01:40:12;;;;;;;19.65;8.93;;;;;;;9.90;68.22;99696.32;1645570;87;21212;-70
2022/05/04 01:42:40;;;;;;;18.05;9.15;;;;;;;9.90;68.21;99693.70;1645656;87;21137;-70
2022/05/04 01:45:09;;;;;;;13.10;7.50;;;;;;;9.91;68.10;99698.02;1678949;85;21114;-70
2022/05/04 01:47:36;;;;;;;11.40;6.17;;;;;;;9.92;68.11;99701.06;1678769;85;21033;-70
2022/05/04 01:50:04;;;;;;;15.20;8.03;;;;;;;9.90;68.20;99695.01;1645930;87;21117;-69
2022/05/04 01:52:31;;;;;;;15.63;7.42;;;;;;;9.88;68.20;99698.54;1678687;85;21137;-70
2022/05/04 01:55:01;;;;;;;11.97;7.47;;;;;;;9.88;68.08;99699.86;1678669;85;21104;-70
2022/05/04 01:57:28;;;;;;;12.98;7.92;;;;;;;9.90;68.22;99698.95;1646207;87;21141;-71
2022/05/04 01:59:55;;;;;;;18.57;7.50;;;;;;;9.88;68.24;99705.11;1645696;87;21086;-70
2022/05/04 02:02:22;;;;;;;14.83;8.10;;;;;;;9.87;68.58;99703.88;1678674;85;21527;-71
2022/05/04 02:04:50;;;;;;;11.00;6.70;;;;;;;9.88;68.53;99714.32;1678614;85;21140;-70
2022/05/04 02:07:17;;;;;;;10.72;6.53;;;;;;;9.90;68.43;99721.31;1678459;85;21085;-70
2022/05/04 02:09:46;;;;;;;9.88;6.83;;;;;;;9.90;68.82;99720.00;1678446;85;21082;-71
2022/05/04 02:12:12;;;;;;;17.92;8.45;;;;;;;9.91;69.08;99716.43;1678658;85;21126;-70
2022/05/04 02:14:39;;;;;;;10.23;6.47;;;;;;;9.91;68.93;99718.59;1645870;87;21077;-71
2022/05/04 02:17:05;;;;;;;13.88;7.45;;;;;;;9.92;69.05;99724.73;1679010;85;21150;-71
2022/05/04 02:19:32;;;;;;;12.88;6.37;;;;;;;9.92;69.01;99728.69;1645912;87;21211;-70
2022/05/04 02:21:59;;;;;;;12.35;6.60;;;;;;;9.93;69.19;99733.01;1646096;87;21144;-69
2022/05/04 02:24:26;;;;;;;10.32;6.90;;;;;;;9.92;69.24;99729.53;1645820;87;21377;-70
2022/05/04 02:26:52;;;;;;;8.93;5.97;;;;;;;9.91;68.97;99733.53;1678922;85;21618;-70
2022/05/04 02:29:19;;;;;;;8.20;6.05;;;;;;;9.90;68.97;99738.41;1683652;84;21589;-70
2022/05/04 02:31:46;;;;;;;10.60;5.78;;;;;;;9.86;68.94;99741.14;1670223;84;21112;-70
2022/05/04 02:34:12;;;;;;;12.55;6.28;;;;;;;9.83;69.11;99736.02;1673557;85;21142;-70
2022/05/04 02:39:25;;;;;;;9.70;5.92;;;;;;;9.75;69.54;99739.86;1673647;85;21086;-71
2022/05/04 02:41:52;;;;;;;9.90;6.12;;;;;;;9.71;69.55;99743.09;1673707;85;22193;-71
2022/05/04 02:44:20;;;;;;;10.98;5.92;;;;;;;9.68;70.01;99748.91;1673546;85;22112;-70
2022/05/04 02:46:50;;;;;;;8.83;5.85;;;;;;;9.63;70.20;99756.52;1673844;85;21550;-70
2022/05/04 02:49:17;;;;;;;12.37;6.40;;;;;;;9.60;70.54;99762.37;1673819;85;21136;-70
2022/05/04 02:51:44;;;;;;;8.73;5.42;;;;;;;9.55;71.09;99763.86;1673816;85;21051;-70
2022/05/04 02:54:11;;;;;;;13.03;6.20;;;;;;;9.52;71.44;99764.42;1673704;85;21269;-71
2022/05/04 02:56:38;;;;;;;8.73;6.00;;;;;;;9.49;71.78;99767.18;1673707;85;21054;-71
2022/05/04 02:59:06;;;;;;;12.50;6.78;;;;;;;9.48;72.08;99772.02;1673824;85;21139;-69
2022/05/04 03:04:17;;;;;;;9.18;5.50;;;;;;;9.44;72.21;99772.15;1673719;85;21145;-70
2022/05/04 03:06:44;;;;;;;7.92;5.60;;;;;;;9.45;72.06;99781.77;1673843;85;21294;-71
2022/05/04 03:09:11;;;;;;;16.42;6.08;;;;;;;9.47;71.99;99781.69;1673456;85;21114;-71
2022/05/04 03:11:57;;;;;;;11.83;6.33;;;;;;;9.50;72.14;99788.59;1673729;85;21078;-71
2022/05/04 03:14:27;;;;;;;15.78;5.80;;;;;;;9.57;72.02;99783.50;1673733;85;21503;-70
2022/05/04 03:16:55;;;;;;;12.70;5.80;;;;;;;9.64;71.93;99787.63;1674081;85;21117;-71
2022/05/04 03:19:22;;;;;;;7.05;5.17;;;;;;;9.74;71.71;99796.86;1673793;85;21897;-71
2022/05/04 03:21:49;;;;;;;9.48;5.92;;;;;;;9.97;71.12;99800.37;1673830;85;21133;-71
2022/05/04 03:24:16;;;;;;;8.75;5.22;;;;;;;10.22;70.36;99805.04;1673534;85;21066;-70
2022/05/04 03:26:42;;;;;;;9.78;5.80;;;;;;;10.56;69.48;99809.38;1673694;85;21069;-71
2022/05/04 03:29:09;;;;;;;11.80;5.33;;;;;;;10.97;68.04;99806.29;1673158;85;21621;-70
2022/05/04 03:31:36;;;;;;;11.03;5.17;;;;;;;11.34;66.44;99809.92;1710857;83;21142;-70
2022/05/04 03:34:03;;;;;;;6.95;4.72;;;;;;;11.71;65.36;99806.47;1653190;86;21034;-70
2022/05/04 03:36:29;;;;;;;10.43;5.00;;;;;;;12.07;63.54;99807.45;1686271;85;21554;-71
2022/05/04 03:38:58;;;;;;;7.25;4.92;;;;;;;12.36;62.38;99817.45;1686215;85;21578;-73
2022/05/04 03:41:25;;;;;;;6.80;4.80;;;;;;;12.49;61.57;99814.19;1686397;85;21108;-69
2022/05/04 03:43:52;;;;;;;8.03;5.28;;;;;;;12.38;60.94;99824.84;1686385;85;21204;-70
2022/05/04 03:46:21;;;;;;;7.05;4.47;;;;;;;12.39;60.93;99831.81;1653127;86;21069;-70
2022/05/04 03:48:52;;;;;;;5.92;4.58;;;;;;;12.30;60.40;99824.34;1653201;86;21132;-71
2022/05/04 03:51:20;;;;;;;7.58;4.67;;;;;;;12.12;60.79;99841.95;1686785;85;21101;-71
2022/05/04 03:53:50;;;;;;;11.90;4.87;;;;;;;12.07;61.21;99836.48;1686284;85;21585;-71
2022/05/04 03:56:18;;;;;;;5.75;4.15;;;;;;;12.33;61.02;99832.58;1653317;86;21774;-71
2022/05/04 03:58:45;;;;;;;5.50;4.20;;;;;;;12.76;59.80;99841.86;1653018;86;21621;-71
2022/05/04 04:01:13;;;;;;;8.18;4.10;;;;;;;13.25;58.42;99841.59;1686726;85;21632;-70
2022/05/04 04:03:40;;;;;;;7.80;3.70;;;;;;;13.66;57.43;99843.84;1686346;85;21065;-71
2022/05/04 04:06:06;;;;;;;6.60;3.90;;;;;;;13.98;55.56;99842.92;1686342;85;21108;-72
2022/05/04 04:08:33;;;;;;;7.90;4.33;;;;;;;14.16;54.72;99842.38;1652999;86;21152;-71
2022/05/04 04:10:59;;;;;;;6.60;4.20;;;;;;;14.16;54.54;99845.50;1686519;85;21045;-71
2022/05/04 04:13:26;;;;;;;7.20;3.98;;;;;;;14.25;54.10;99838.36;1653110;86;22320;-70
2022/05/04 04:15:52;;;;;;;5.75;3.98;;;;;;;14.57;53.39;99847.61;1653006;86;21621;-70
2022/05/04 04:18:21;;;;;;;7.80;4.10;;;;;;;14.80;52.88;99847.11;1686605;85;21175;-71
2022/05/04 04:23:34;;;;;;;6.47;3.80;;;;;;;15.59;50.46;99843.70;1653276;86;21007;-71
2022/05/04 04:26:04;;;;;;;9.60;4.00;;;;;;;15.91;49.11;99839.05;1686359;84;21104;-71
2022/05/04 04:28:31;;;;;;;8.00;3.90;;;;;;;16.21;48.98;99844.66;1653402;86;21117;-72
2022/05/04 04:30:58;;;;;;;6.33;3.62;;;;;;;16.55;48.46;99844.16;1691401;83;21068;-72
2022/05/04 04:33:29;;;;;;;5.47;3.70;;;;;;;16.98;47.05;99844.45;1725848;83;21287;-72
2022/05/04 04:35:57;;;;;;;6.37;3.50;;;;;;;17.22;46.14;99847.22;1725744;83;21102;-70
2022/05/04 04:38:24;;;;;;;6.00;3.90;;;;;;;17.36;45.05;99848.44;1726201;83;21525;-71
2022/05/04 04:40:50;;;;;;;5.42;3.55;;;;;;;17.40;44.87;99849.94;1690864;84;21052;-71
2022/05/04 04:43:17;;;;;;;8.98;3.87;;;;;;;17.40;44.81;99851.27;1691223;84;21165;-71
2022/05/04 04:45:49;;;;;;;7.90;3.20;;;;;;;17.60;44.46;99860.52;1690946;84;21052;-70
2022/05/04 04:48:16;;;;;;;8.43;3.50;;;;;;;17.77;44.27;99864.64;1691172;83;21040;-71
2022/05/04 04:50:46;;;;;;;6.05;2.95;;;;;;;17.97;43.73;99859.75;1690863;84;21572;-73
2022/05/04 04:53:14;;;;;;;6.92;3.42;;;;;;;18.27;42.72;99857.13;1691305;84;21056;-70
2022/05/04 04:55:42;;;;;;;12.28;3.33;;;;;;;18.56;42.32;99858.48;1691042;84;21051;-72
2022/05/04 04:58:09;;;;;;;7.37;3.00;;;;;;;18.82;41.48;99866.41;1691245;84;21968;-71
2022/05/04 05:00:37;;;;;;;6.17;3.15;;;;;;;18.97;41.36;99863.89;1690783;84;21059;-72
2022/05/04 05:03:04;;;;;;;4.42;3.25;;;;;;;19.13;40.70;99861.39;1690803;84;21093;-73
2022/05/04 05:05:32;;;;;;;6.80;3.17;;;;;;;19.03;40.51;99862.09;1690808;84;21115;-70
2022/05/04 05:07:58;;;;;;;3.92;2.90;;;;;;;19.27;40.53;99863.84;1691034;84;21600;-72
2022/05/04 05:10:25;;;;;;;4.40;3.00;;;;;;;19.44;39.84;99863.39;1690761;84;21238;-71
2022/05/04 05:12:51;;;;;;;6.33;3.33;;;;;;;19.47;39.62;99865.81;1690916;84;21025;-71
2022/05/04 05:18:05;;;;;;;5.03;2.90;;;;;;;20.19;38.52;99867.74;1691289;84;22103;-73
2022/05/04 05:20:31;;;;;;;4.40;2.90;;;;;;;20.41;37.62;99868.19;1691399;84;21096;-73
2022/05/04 05:23:00;;;;;;;7.20;2.87;;;;;;;20.64;37.13;99867.16;1690902;84;21082;-72
2022/05/04 05:25:26;;;;;;;5.80;2.60;;;;;;;20.78;36.04;99875.87;1690932;84;21103;-71
2022/05/04 05:27:53;;;;;;;6.15;2.62;;;;;;;20.74;36.01;99881.45;1690856;84;21108;-71
2022/05/04 05:30:19;;;;;;;4.83;2.45;;;;;;;20.79;35.88;99877.06;1689711;84;21020;-70
2022/05/04 05:32:46;;;;;;;29.67;14.30;;;;;;;20.97;35.67;99883.19;1721084;82;21058;-72
2022/05/04 05:35:15;;;;;;;5.22;2.37;;;;;;;21.15;34.53;99874.44;1720676;83;21907;-71
2022/05/04 05:37:42;;;;;;;6.12;2.30;;;;;;;21.33;33.87;99879.22;1720346;83;21096;-70
2022/05/04 05:40:11;;;;;;;4.20;2.25;;;;;;;21.19;33.27;99883.54;1720610;83;21045;-73
2022/05/04 05:42:37;;;;;;;4.55;2.20;;;;;;;21.10;33.46;99873.99;1685648;85;22290;-72
2022/05/04 05:45:06;;;;;;;5.05;2.17;;;;;;;21.37;33.41;99877.95;1686075;83;21726;-71
2022/05/04 05:47:33;;;;;;;6.95;2.50;;;;;;;21.74;32.70;99882.81;1685871;85;21918;-73
2022/05/04 05:50:00;;;;;;;4.65;2.12;;;;;;;22.02;32.20;99885.74;1685821;85;21037;-72
2022/05/04 05:52:26;;;;;;;4.28;2.22;;;;;;;22.33;31.95;99890.09;1685999;85;21048;-71
2022/05/04 05:54:53;;;;;;;3.65;2.27;;;;;;;22.57;31.20;99894.25;1686020;85;21068;-71
2022/05/04 05:57:22;;;;;;;5.15;2.30;;;;;;;22.74;30.70;99890.02;1685893;85;21068;-73
2022/05/04 05:59:49;;;;;;;3.87;2.10;;;;;;;22.91;30.20;99896.00;1685988;85;21934;-73
2022/05/04 06:02:15;;;;;;;7.03;2.33;;;;;;;22.95;30.52;99901.95;1685645;85;21712;-71
2022/05/04 06:04:42;;;;;;;3.98;1.90;;;;;;;23.11;30.37;99899.56;1720500;83;21097;-72
2022/05/04 06:07:09;;;;;;;12.45;2.20;;;;;;;23.38;29.78;99896.64;1720376;83;21054;-73
2022/05/04 06:09:35;;;;;;;7.15;2.27;;;;;;;23.48;30.19;99892.07;1720432;83;21089;-73
2022/05/04 06:12:02;;;;;;;3.60;2.10;;;;;;;23.57;29.92;99893.88;1720791;83;21610;-71
2022/05/04 06:14:30;;;;;;;9.13;2.50;;;;;;;23.64;29.97;99900.37;1685790;85;21045;-73
2022/05/04 06:16:57;;;;;;;6.10;2.27;;;;;;;23.78;30.61;99892.86;1721158;82;21045;-72
2022/05/04 06:19:23;;;;;;;11.35;4.45;;;;;;;23.98;29.79;99902.54;1720771;83;21593;-72
2022/05/04 06:21:50;;;;;;;6.70;2.42;;;;;;;24.00;30.04;99903.24;1720934;83;21594;-73
2022/05/04 06:24:17;;;;;;;4.30;2.37;;;;;;;23.91;30.17;99896.06;1720474;83;21727;-72
2022/05/04 06:26:43;;;;;;;6.85;2.30;;;;;;;23.81;30.10;99900.62;1720684;83;21045;-73
2022/05/04 06:29:10;;;;;;;4.55;2.50;;;;;;;23.65;30.10;99906.61;1720141;83;21053;-73
2022/05/04 06:34:22;;;;;;;4.40;2.30;;;;;;;23.61;30.16;99906.05;1678073;85;21045;-71
2022/05/04 06:36:48;;;;;;;6.80;2.58;;;;;;;23.62;30.45;99907.73;1678231;85;21254;-73
2022/05/04 06:39:15;;;;;;;4.37;2.25;;;;;;;23.51;30.70;99912.43;1677977;85;21112;-73
2022/05/04 06:41:42;;;;;;;3.17;2.20;;;;;;;23.50;30.62;99915.63;1678340;85;21029;-72
2022/05/04 06:44:09;;;;;;;10.05;3.15;;;;;;;23.35;30.68;99918.41;1678313;84;21068;-71
2022/05/04 06:46:38;;;;;;;5.83;2.10;;;;;;;23.28;30.99;99907.88;1678443;85;21049;-72
2022/05/04 06:49:05;;;;;;;5.15;2.40;;;;;;;23.51;30.89;99911.92;1678299;85;21203;-73
2022/05/04 06:51:31;;;;;;;7.28;2.62;;;;;;;23.73;30.38;99908.56;1678293;85;21065;-73
2022/05/04 06:53:58;;;;;;;5.78;2.00;;;;;;;23.86;30.52;99903.73;1678348;85;21064;-73
2022/05/04 06:56:24;;;;;;;5.35;1.90;;;;;;;23.97;29.69;99907.58;1678512;85;21033;-71
2022/05/04 06:58:51;;;;;;;3.67;1.87;;;;;;;23.86;29.62;99907.27;1678428;85;21042;-72
2022/05/04 07:01:18;;;;;;;4.72;2.67;;;;;;;23.74;29.85;99918.30;1678254;85;21260;-73
2022/05/04 07:03:46;;;;;;;5.95;2.40;;;;;;;23.79;29.53;99914.73;1678283;85;21588;-73
2022/05/04 07:06:13;;;;;;;6.03;1.90;;;;;;;24.00;29.57;99921.23;1678186;85;21072;-72
2022/05/04 07:08:41;;;;;;;8.75;1.90;;;;;;;24.28;29.53;99919.38;1678178;85;21076;-71
2022/05/04 07:11:08;;;;;;;6.67;2.47;;;;;;;24.26;28.55;99921.38;1678373;85;21092;-73
2022/05/04 07:13:36;;;;;;;3.92;2.15;;;;;;;23.77;29.42;99926.97;1678417;85;21218;-72
2022/05/04 07:16:03;;;;;;;3.80;2.37;;;;;;;23.65;29.78;99930.81;1678250;85;21561;-73
2022/05/04 07:18:29;;;;;;;5.55;2.12;;;;;;;23.52;29.91;99928.92;1678445;85;21206;-72
2022/05/04 07:20:56;;;;;;;3.33;1.80;;;;;;;23.49;30.19;99932.75;1678506;85;21151;-73
2022/05/04 07:23:22;;;;;;;7.45;2.08;;;;;;;23.44;29.44;99935.88;1678246;85;21053;-72
2022/05/04 07:25:49;;;;;;;17.40;2.40;;;;;;;23.43;29.09;99954.81;1678216;85;21263;-71
2022/05/04 07:28:16;;;;;;;2.12;1.75;;;;;;;23.41;29.09;99954.11;1678182;85;21044;-71
2022/05/04 07:30:42;;;;;;;3.85;1.90;;;;;;;23.30;29.31;99946.20;1676233;84;21057;-71
2022/05/04 07:33:09;;;;;;;2.60;1.72;;;;;;;23.16;29.65;99949.67;1670763;85;21093;-73
2022/05/04 07:35:36;;;;;;;5.62;1.50;;;;;;;23.22;29.73;99953.14;1670907;85;21082;-71
2022/05/04 07:38:03;;;;;;;2.62;1.80;;;;;;;23.48;29.73;99953.88;1670874;85;21158;-71
2022/05/04 07:43:14;;;;;;;5.70;1.75;;;;;;;23.86;28.80;99963.73;1670938;85;21066;-71
2022/05/04 07:45:42;;;;;;;5.78;1.85;;;;;;;23.74;28.44;99958.63;1713352;83;21015;-70
2022/05/04 07:48:09;;;;;;;5.92;1.95;;;;;;;23.57;28.51;99959.73;1713195;83;21244;-71
2022/05/04 07:50:37;;;;;;;5.70;1.95;;;;;;;23.42;28.77;99970.58;1713036;82;21231;-71
2022/05/04 07:53:04;;;;;;;7.25;1.60;;;;;;;23.24;28.02;99968.63;1713124;83;21002;-73
2022/05/04 07:55:30;;;;;;;3.45;1.30;;;;;;;23.07;28.31;99966.64;1712970;83;21037;-72
2022/05/04 07:57:58;;;;;;;6.35;1.80;;;;;;;22.99;28.44;99970.03;1713052;83;21002;-71
2022/05/04 08:05:55;;;;;;;5.72;1.42;;;;;;;22.91;27.71;99979.74;1712895;83;21106;-72
2022/05/04 08:08:22;;;;;;;3.22;1.50;;;;;;;22.82;27.81;99968.88;1713025;83;20998;-73
2022/05/04 08:10:50;;;;;;;3.80;1.42;;;;;;;22.83;27.79;99976.42;1713134;82;21038;-72
2022/05/04 08:13:19;;;;;;;2.87;1.30;;;;;;;22.60;27.53;99977.16;1712901;83;21065;-71
2022/05/04 08:15:47;;;;;;;7.20;2.40;;;;;;;22.56;27.76;99971.70;1713073;82;22124;-73
2022/05/04 08:18:13;;;;;;;3.50;1.40;;;;;;;22.59;27.96;99979.00;1713327;83;21019;-72
2022/05/04 08:20:43;;;;;;;5.42;1.55;;;;;;;22.67;28.25;99978.30;1712954;82;21042;-70
2022/05/04 08:23:10;;;;;;;2.50;1.07;;;;;;;22.75;26.54;99985.19;1713128;83;21089;-71
2022/05/04 08:25:37;;;;;;;4.12;1.20;;;;;;;22.76;26.01;99980.16;1713572;82;21073;-73
2022/05/04 08:28:04;;;;;;;6.00;1.67;;;;;;;22.81;25.55;99985.11;1713060;83;21220;-72
2022/05/04 08:30:31;;;;;;;3.47;1.15;;;;;;;23.00;25.37;99978.44;1713246;82;21061;-74
2022/05/04 08:32:57;;;;;;;4.42;1.40;;;;;;;23.12;25.51;99985.89;1696743;83;21021;-73
2022/05/04 08:35:24;;;;;;;2.72;1.20;;;;;;;23.10;25.82;99987.86;1658192;86;21105;-71
2022/05/04 08:37:51;;;;;;;4.37;1.45;;;;;;;23.06;25.61;99991.81;1658356;86;21073;-72
2022/05/04 08:40:17;;;;;;;2.80;1.25;;;;;;;23.04;25.47;99988.41;1658266;86;21235;-72
2022/05/04 08:42:45;;;;;;;4.42;1.37;;;;;;;22.94;25.89;99988.38;1658049;86;21041;-72
2022/05/04 08:45:13;;;;;;;3.00;1.27;;;;;;;22.95;26.44;99991.41;1658251;86;21089;-71
2022/05/04 08:47:40;;;;;;;3.37;1.42;;;;;;;23.04;26.06;99993.78;1658212;86;21022;-72
2022/05/04 08:50:17;;;;;;;3.20;1.50;;;;;;;23.12;26.50;99999.31;1658253;86;21576;-72
2022/05/04 08:52:53;;;;;;;5.67;1.60;;;;;;;23.29;26.41;100003.63;1658130;86;21854;-70
2022/05/04 08:55:13;;;;;;;5.28;2.08;;;;;;;23.37;26.47;100004.59;1657059;86;21115;-72
2022/05/04 08:57:41;;;;;;;4.47;1.42;;;;;;;23.52;26.65;100005.02;1658147;86;21411;-71
2022/05/04 09:00:10;;;;;;;8.78;1.52;;;;;;;23.79;26.25;100005.66;1658214;86;21637;-71
2022/05/04 09:02:38;;;;;;;4.60;1.55;;;;;;;24.01;25.56;99999.56;1658171;86;21117;-72
2022/05/04 09:05:26;;;;;;;3.30;1.35;;;;;;;24.00;25.19;99998.73;1658362;86;21094;-72
2022/05/04 09:07:55;;;;;;;5.47;1.45;;;;;;;23.84;25.79;100007.91;1657935;86;21061;-72
2022/05/04 09:10:34;;;;;;;2.75;1.32;;;;;;;23.73;25.49;100000.81;1657989;86;21084;-72
2022/05/04 09:13:03;;;;;;;6.20;1.35;;;;;;;23.47;25.96;99995.20;1658196;86;21057;-72
2022/05/04 09:15:32;;;;;;;6.20;1.80;;;;;;;23.62;26.18;100003.16;1658158;86;21116;-72
2022/05/04 09:18:08;;;;;;;2.40;1.50;;;;;;;23.89;25.93;100001.58;1658207;86;22162;-72
2022/05/04 09:20:53;;;;;;;53.10;22.93;;;;;;;24.25;25.21;99993.69;1658064;86;21014;-72
2022/05/04 09:23:29;;;;;;;7.95;1.72;;;;;;;24.44;25.15;99996.27;1629325;88;21085;-71
2022/05/04 09:25:58;;;;;;;3.72;1.42;;;;;;;24.51;24.29;99994.37;1641320;87;21037;-72
2022/05/04 09:28:27;;;;;;;4.35;1.57;;;;;;;24.19;24.55;99999.65;1679862;84;21138;-71
2022/05/04 09:30:59;;;;;;;3.65;1.30;;;;;;;23.75;24.61;100003.39;1666259;85;21092;-71
2022/05/04 09:33:32;;;;;;;4.62;1.40;;;;;;;23.11;25.05;99996.26;1672026;85;21033;-72
2022/05/04 09:35:59;;;;;;;3.02;1.40;;;;;;;22.61;25.59;99993.61;1672975;85;21120;-72
2022/05/04 09:45:55;;;;;;;5.10;1.70;;;;;;;21.66;26.28;100005.43;1882124;75;22494;-73
2022/05/04 09:48:30;;;;;;;3.55;1.40;;;;;;;21.73;25.87;99985.66;1858831;77;21608;-73
2022/05/04 09:51:05;;;;;;;4.45;1.40;;;;;;;21.98;26.15;100001.31;1858730;77;21905;-71
2022/05/04 09:53:34;;;;;;;13.43;1.72;;;;;;;22.31;24.95;99999.38;1858876;77;21520;-72
2022/05/04 09:56:01;;;;;;;7.92;1.50;;;;;;;22.28;24.60;100002.33;1859065;77;21004;-72
2022/05/04 09:58:29;;;;;;;4.75;1.60;;;;;;;22.03;25.00;100004.09;1858975;77;20971;-73
2022/05/04 10:00:57;;;;;;;2.55;1.20;;;;;;;21.88;24.81;100007.13;1858787;77;20993;-71
2022/05/04 10:03:25;;;;;;;3.85;1.17;;;;;;;21.76;25.38;100004.14;1858739;77;21469;-74
2022/05/04 10:05:53;;;;;;;4.45;1.20;;;;;;;21.75;25.53;100000.63;1858559;77;20913;-71
2022/05/04 10:08:21;;;;;;;7.03;2.33;;;;;;;21.85;24.38;99993.97;1858824;77;20953;-74
2022/05/04 10:10:48;;;;;;;4.22;1.20;;;;;;;21.67;24.43;100011.63;1858720;77;21056;-73
2022/05/04 10:13:18;;;;;;;3.45;1.27;;;;;;;21.55;23.86;99998.30;1858658;77;21039;-74
2022/05/04 10:15:46;;;;;;;13.72;2.08;;;;;;;21.78;23.94;99992.80;1858801;77;21231;-73
2022/05/04 10:18:20;;;;;;;5.83;1.10;;;;;;;22.17;23.86;100006.41;1858993;77;21008;-73
2022/05/04 10:21:01;;;;;;;2.70;0.95;;;;;;;22.59;23.57;100010.33;1829655;77;21036;-72
2022/05/04 10:23:31;;;;;;;3.60;1.70;;;;;;;23.07;23.05;100001.55;1849848;77;21067;-72
2022/05/04 10:25:58;;;;;;;5.55;2.20;;;;;;;23.41;22.80;99998.45;1855891;77;21024;-72
2022/05/04 10:28:25;;;;;;;7.45;1.10;;;;;;;23.78;22.46;100007.13;1854902;77;21290;-72
2022/05/04 10:31:01;;;;;;;3.90;1.05;;;;;;;24.08;21.67;100008.23;1851518;77;21003;-73
2022/05/04 10:33:35;;;;;;;11.53;1.30;;;;;;;24.38;21.25;100004.94;1838691;78;21030;-72
2022/05/04 10:36:18;;;;;;;2.85;0.88;;;;;;;24.62;20.66;99996.86;1838923;78;21554;-71
2022/05/04 10:38:55;;;;;;;4.28;1.10;;;;;;;24.58;20.05;99992.77;1836457;78;21565;-72
2022/05/04 10:41:36;;;;;;;1.70;0.90;;;;;;;24.53;20.79;99998.61;1753976;81;21116;-71
2022/05/04 10:44:03;;;;;;;3.15;0.90;;;;;;;24.88;20.16;99995.63;1783202;80;21088;-71
2022/05/04 10:46:30;;;;;;;1.65;0.85;;;;;;;25.25;19.97;99994.16;1769704;81;21046;-72
2022/05/04 10:49:02;;;;;;;5.80;1.30;;;;;;;25.57;19.22;99995.43;1769351;81;21016;-71
2022/05/04 10:51:37;;;;;;;2.98;1.10;;;;;;;25.58;18.46;99993.06;1769485;81;22198;-70
2022/05/04 10:54:08;;;;;;;4.80;1.10;;;;;;;25.62;19.06;99995.80;1769229;81;22284;-72
2022/05/04 10:56:41;;;;;;;4.00;0.80;;;;;;;25.60;17.19;99987.02;1764650;81;21104;-73
2022/05/04 10:59:08;;;;;;;7.85;1.42;;;;;;;25.41;17.81;99993.45;1768625;81;21010;-73
2022/05/04 11:01:39;;;;;;;7.05;1.60;;;;;;;25.16;18.36;99999.60;1768560;80;21066;-71
2022/05/04 11:04:15;;;;;;;2.40;1.20;;;;;;;24.94;18.56;100004.45;1768903;81;21101;-72
2022/05/04 11:06:54;;;;;;;7.35;1.07;;;;;;;24.90;18.39;99994.47;1768715;80;21070;-71
2022/05/04 11:09:31;;;;;;;3.10;0.88;;;;;;;24.63;18.93;100003.92;1768877;81;21047;-71
2022/05/04 11:12:01;;;;;;;3.92;0.98;;;;;;;24.46;19.67;99992.94;1768717;81;21066;-73
2022/05/04 11:14:28;;;;;;;6.30;1.42;;;;;;;24.22;19.54;99996.15;1768703;80;21585;-71
2022/05/04 11:16:57;;;;;;;3.30;0.88;;;;;;;23.56;20.11;100007.78;1768984;81;21049;-72
2022/05/04 11:19:29;;;;;;;3.50;1.27;;;;;;;22.87;20.90;100014.09;1768622;81;21234;-70
2022/05/04 11:21:56;;;;;;;4.45;1.27;;;;;;;22.49;21.32;100008.12;1768373;81;21022;-73
2022/05/04 11:24:27;;;;;;;6.40;1.17;;;;;;;22.50;21.25;100015.18;1768721;81;21046;-72
2022/05/04 11:26:54;;;;;;;;;;;;;;;22.49;21.33;100006.79;1771362;81;21034;-72
2022/05/04 11:29:27;;;;;;;3.47;1.10;;;;;;;22.54;21.56;100004.03;1768887;80;20551;-72
2022/05/04 11:32:03;;;;;;;4.45;1.57;;;;;;;22.56;21.33;99999.88;1774675;80;21632;-72
2022/05/04 11:34:35;;;;;;;2.42;0.95;;;;;;;22.69;21.81;100007.70;1785742;80;21657;-72
2022/05/04 11:37:05;;;;;;;2.30;1.20;;;;;;;22.95;21.16;99988.72;1785909;80;21022;-73
2022/05/04 11:39:33;;;;;;;2.98;1.50;;;;;;;23.07;21.68;99994.84;1785834;80;21526;-71
2022/05/04 11:42:01;;;;;;;3.65;1.62;;;;;;;23.22;20.56;99993.44;1785502;80;21030;-71
2022/05/04 11:44:29;;;;;;;2.87;1.00;;;;;;;23.23;21.20;100001.84;1786889;79;21204;-73
2022/05/04 11:46:57;;;;;;;5.12;1.32;;;;;;;23.27;21.31;99988.98;1794213;80;21044;-72
2022/05/04 11:49:32;;;;;;;4.70;1.40;;;;;;;23.22;21.38;99992.09;1794147;80;21013;-72
2022/05/04 11:52:00;;;;;;;2.65;1.40;;;;;;;23.28;21.28;99988.48;1794078;80;21056;-72
2022/05/04 11:54:27;;;;;;;3.90;1.40;;;;;;;23.50;21.47;99990.88;1794207;80;21048;-71
2022/05/04 11:56:54;;;;;;;4.83;1.30;;;;;;;23.42;20.77;99990.73;1794085;80;21880;-71
2022/05/04 11:59:20;;;;;;;5.60;1.72;;;;;;;22.89;20.79;99988.43;1794189;80;22020;-71
2022/05/04 12:01:47;;;;;;;4.37;1.07;;;;;;;22.12;21.55;100002.80;1794084;80;21563;-74
2022/05/04 12:04:13;;;;;;;5.62;1.22;;;;;;;21.68;22.43;100002.13;1794092;80;21053;-71
2022/05/04 12:06:42;;;;;;;3.85;1.10;;;;;;;21.68;22.56;100006.16;1793819;80;21021;-71
2022/05/04 12:09:09;;;;;;;5.53;1.40;;;;;;;21.77;22.66;99997.82;1793772;80;21246;-71